Date,TemperatureHighF,TemperatureAvgF,TemperatureLowF,DewpointHighF,DewpointAvgF,DewpointLowF,HumidityHigh,HumidityAvg,HumidityLow,PressureMaxIn,PressureMinIn,WindSpeedMaxMPH,WindSpeedAvgMPH,GustSpeedMaxMPH,PrecipitationSumIn
2013-1-1,32,23,14,30,21,13,96,88,74,0.00,40.00,17,8,27,0.00
2013-1-2,27,22,15,20,16,10,91,78,70,0.00,40.00,13,9,25,0.00
2013-1-3,34,22,14,19,14,8,96,73,35,0.00,40.00,12,5,0,0.00
2013-1-4,40,30,20,26,21,17,100,71,42,0.00,40.00,16,5,29,0.00
2013-1-5,37,27,20,24,19,14,96,73,49,0.00,40.00,12,6,0,0.00
2013-1-6,41,34,22,27,22,18,100,62,47,0.00,40.00,15,8,21,0.00
2013-1-7,41,34,30,32,22,18,92,64,44,0.00,40.00,12,8,0,0.00
2013-1-8,40,34,26,33,27,17,95,74,58,0.00,40.00,15,10,28,0.00
2013-1-9,46,36,27,32,27,21,81,69,47,0.00,40.00,16,9,0,0.00
2013-1-10,40,28,13,30,23,11,91,82,67,0.00,40.00,15,7,24,0.00
2013-1-11,14,9,3,12,6,-2,91,90,86,0.00,40.00,14,10,25,0.00
2013-1-12,18,7,1,8,0,-7,87,73,55,0.00,40.00,10,5,20,0.00
2013-1-13,11,6,-2,7,2,-5,91,83,69,0.00,40.00,6,3,0,0.00
2013-1-14,24,16,7,17,11,5,91,82,67,0.00,40.00,10,5,0,0.00
2013-1-15,43,34,24,32,27,18,100,75,50,0.00,40.00,20,12,38,0.00
2013-1-16,43,40,36,30,27,23,72,60,46,0.00,40.00,21,12,35,0.00
2013-1-17,46,37,30,30,27,23,96,70,39,0.00,40.00,10,5,0,0.00
2013-1-18,47,41,35,28,25,23,67,53,43,0.00,40.00,13,7,22,0.00
2013-1-19,36,25,20,26,18,13,87,76,66,0.00,40.00,12,5,21,0.00
2013-1-20,21,5,-4,17,0,-10,96,79,53,0.00,40.00,10,6,17,0.00
2013-1-21,11,6,-1,7,0,-9,83,78,67,0.00,40.00,6,2,0,0.00
2013-1-22,24,15,11,13,10,7,91,80,59,0.00,40.00,7,3,0,0.00
2013-1-23,13,11,9,8,5,4,87,79,69,0.00,40.00,9,5,13,0.00
2013-1-24,39,27,13,26,19,8,87,73,56,0.00,40.00,17,8,36,0.00
2013-1-25,44,32,23,30,25,21,95,75,50,0.00,40.00,6,3,0,0.00
2013-1-26,44,32,30,30,22,-100,95,78,55,0.00,40.00,9,3,0,0.00
2013-1-27,42,33,25,30,26,22,100,78,50,0.00,40.00,8,4,0,0.00
2013-1-28,43,32,26,26,23,19,92,71,41,0.00,40.00,6,3,0,0.00
2013-1-29,29,11,-5,22,6,-10,88,81,74,0.00,40.00,18,8,35,0.00
2013-1-30,7,2,-6,1,-4,-11,83,77,68,0.00,40.00,12,3,22,0.00
2013-1-31,14,4,-15,9,-2,-21,87,74,54,0.00,40.00,7,5,0,0.00
2013-2-1,40,26,12,32,22,9,100,82,64,0.00,40.00,13,5,22,0.00
2013-2-2,40,36,33,29,26,23,75,66,58,0.00,40.00,16,10,33,0.00
2013-2-3,41,36,31,30,27,23,92,70,52,0.00,40.00,12,6,21,0.00
2013-2-4,49,37,29,29,27,22,96,68,42,0.00,40.00,13,8,25,0.00
2013-2-5,42,35,31,32,27,23,85,72,54,0.00,40.00,9,5,18,0.00
2013-2-6,49,40,35,30,26,23,78,59,40,0.00,40.00,12,7,27,0.00
2013-2-7,45,36,30,28,25,23,75,65,45,0.00,40.00,9,4,0,0.00
2013-2-8,39,30,22,28,26,22,100,85,59,0.00,40.00,3,1,0,0.00
2013-2-9,39,29,20,29,25,20,100,86,64,0.00,40.00,12,4,0,0.00
2013-2-10,32,24,17,29,15,-100,92,82,74,0.00,40.00,14,8,24,0.00
2013-2-11,36,22,12,21,11,-100,96,71,45,0.00,40.00,9,5,0,0.00
2013-2-12,46,32,24,29,24,20,87,71,43,0.00,40.00,9,5,17,0.00
2013-2-13,43,38,30,30,26,19,71,61,55,0.00,40.00,16,12,28,0.00
2013-2-14,32,26,16,25,20,14,96,79,58,0.00,40.00,18,8,36,0.00
2013-2-15,42,31,19,29,20,15,91,65,38,0.00,40.00,12,5,21,0.00
2013-2-16,55,42,33,30,28,26,77,58,33,0.00,40.00,10,5,0,0.00
2013-2-17,41,35,27,32,29,24,95,80,64,0.00,40.00,14,9,25,0.00
2013-2-18,25,20,7,22,15,2,96,81,62,0.00,40.00,12,7,0,0.00
2013-2-19,23,12,3,12,6,0,91,75,59,0.00,40.00,10,6,27,0.00
2013-2-20,21,15,8,10,8,5,91,74,56,0.00,40.00,9,5,0,0.00
2013-2-21,30,19,10,19,13,9,95,81,55,0.00,40.00,6,2,0,0.00
2013-2-22,45,31,19,24,20,0,96,68,24,0.00,40.00,12,5,0,0.00
2013-2-23,47,36,29,27,23,19,81,58,39,0.00,40.00,12,6,25,0.00
2013-2-24,43,34,24,28,22,18,92,64,36,0.00,40.00,12,7,20,0.00
2013-2-25,50,37,29,27,20,16,74,52,30,0.00,40.00,9,5,0,0.00
2013-2-26,39,32,27,28,24,22,92,73,49,0.00,40.00,12,9,22,0.00
2013-2-27,33,29,25,26,18,-100,88,76,60,0.00,40.00,8,3,0,0.00
2013-2-28,45,33,25,26,23,17,96,71,35,0.00,40.00,12,-39,20,0.00
2013-3-1,52,37,24,32,27,23,96,68,38,0.00,40.00,7,4,0,0.00
2013-3-2,56,46,40,33,32,30,70,58,38,0.00,40.00,7,3,0,0.00
2013-3-3,42,37,32,35,30,26,92,76,64,0.00,40.00,12,5,20,0.00
2013-3-4,31,20,12,28,16,0,96,85,38,0.00,40.00,20,-55,37,0.00
2013-3-5,26,15,6,15,10,4,95,84,59,0.00,40.00,6,3,0,0.00
2013-3-6,33,22,11,24,17,10,96,82,58,0.00,40.00,10,6,16,0.00
2013-3-7,38,28,19,27,22,14,96,82,58,0.00,40.00,10,4,0,0.00
2013-3-8,30,22,13,26,18,12,96,86,74,0.00,40.00,10,6,0,0.00
2013-3-9,38,28,19,27,22,18,100,79,49,0.00,40.00,10,4,17,0.00
2013-3-10,46,31,17,29,22,16,100,74,43,0.00,40.00,7,3,0,0.00
2013-3-11,40,35,29,27,23,18,78,63,47,0.00,40.00,15,10,27,0.00
2013-3-12,39,32,17,22,18,14,87,58,45,0.00,40.00,13,7,21,0.00
2013-3-13,66,48,33,35,30,22,72,52,29,0.00,40.00,13,8,25,0.00
2013-3-14,61,42,31,37,32,29,96,70,34,0.00,40.00,14,7,0,0.00
2013-3-15,34,29,22,32,26,16,100,90,74,0.00,40.00,13,7,21,0.00
2013-3-16,23,20,17,19,16,13,88,84,80,0.00,40.00,10,6,17,0.00
2013-3-17,28,21,6,27,17,-2,96,85,68,0.00,40.00,18,9,36,0.00
2013-3-18,29,15,2,24,9,-1,92,76,58,0.00,40.00,12,5,20,0.00
2013-3-19,27,18,5,19,8,0,88,64,42,0.00,40.00,12,5,21,0.00
2013-3-20,42,31,17,25,17,11,80,59,39,0.00,40.00,12,8,22,0.00
2013-3-21,33,30,26,29,23,17,96,77,51,0.00,40.00,7,3,12,0.00
2013-3-22,31,24,18,30,20,12,100,84,57,0.00,40.00,12,8,30,0.00
2013-3-23,26,18,12,15,12,10,95,77,56,0.00,40.00,12,7,21,0.00
2013-3-24,26,16,9,12,9,6,91,77,52,0.00,40.00,8,5,0,0.00
2013-3-25,38,23,9,25,17,9,100,78,54,0.00,40.00,10,5,18,0.00
2013-3-26,37,28,19,23,21,16,92,76,53,0.00,40.00,8,4,0,0.00
2013-3-27,44,31,19,32,26,19,100,82,57,0.00,40.00,13,5,0,0.00
2013-3-28,47,34,24,34,28,23,96,80,55,0.00,40.00,10,6,0,0.00
2013-3-29,61,45,32,39,33,28,92,68,28,0.00,40.00,8,4,0,0.00
2013-3-30,53,41,33,37,32,26,95,71,37,0.00,40.00,15,4,28,0.00
2013-3-31,36,32,27,29,26,20,92,75,60,0.00,40.00,14,6,0,0.00
2013-4-1,47,35,26,30,26,24,95,74,45,0.00,40.00,12,4,0,0.00
2013-4-2,62,44,28,28,27,25,96,57,26,0.00,40.00,12,6,20,0.00
2013-4-3,54,47,35,33,28,22,67,48,31,0.00,40.00,15,9,24,0.00
2013-4-4,48,36,30,32,29,23,100,76,49,0.00,40.00,10,6,0,0.00
2013-4-5,61,48,35,44,34,28,82,60,33,0.00,40.00,8,4,0,0.00
2013-4-6,50,42,35,40,35,33,95,77,58,0.00,40.00,12,6,12,0.00
2013-4-7,58,42,30,37,31,25,96,70,28,0.00,40.00,16,8,27,0.00
2013-4-8,29,25,21,25,16,11,88,69,46,0.00,40.00,17,13,27,0.00
2013-4-9,36,24,14,19,12,5,91,62,27,0.00,40.00,10,4,0,0.00
2013-4-10,45,33,23,27,20,15,84,58,38,0.00,40.00,14,10,23,0.00
2013-4-11,47,38,32,35,31,25,100,77,63,0.00,40.00,15,9,27,0.00
2013-4-12,51,38,31,33,26,17,97,69,26,0.00,40.00,10,5,18,0.00
2013-4-13,46,38,31,37,30,27,88,74,51,0.00,40.00,14,6,27,0.00
2013-4-14,34,28,25,32,28,25,100,99,92,0.00,40.00,22,14,35,0.00
2013-4-15,34,28,25,28,26,24,100,92,74,0.00,40.00,12,7,20,0.00
2013-4-16,31,27,23,27,25,22,100,90,75,0.00,40.00,9,5,0,0.00
2013-4-17,34,29,25,27,23,19,96,80,58,0.00,40.00,6,4,0,0.00
2013-4-18,46,32,23,32,25,17,100,77,47,0.00,40.00,8,4,0,0.00
2013-4-19,42,36,31,33,30,26,92,79,61,0.00,40.00,9,5,12,0.00
2013-4-20,56,40,32,40,35,30,95,81,52,0.00,40.00,14,4,18,0.00
2013-4-21,40,34,30,35,25,18,92,70,40,0.00,40.00,12,9,22,0.00
2013-4-22,40,31,22,20,16,10,88,56,33,0.00,40.00,10,6,0,0.00
2013-4-23,49,36,29,25,22,12,81,59,25,0.00,40.00,12,6,20,0.00
2013-4-24,52,46,39,30,23,18,69,42,25,0.00,40.00,12,5,24,0.00
2013-4-25,67,54,40,32,26,19,67,38,15,0.00,40.00,12,7,23,0.00
2013-4-26,75,58,41,32,29,24,70,36,15,0.00,40.00,12,8,20,0.00
2013-4-27,77,64,53,35,29,23,48,28,13,0.00,40.00,17,10,28,0.00
2013-4-28,63,56,47,34,29,24,58,38,22,0.00,40.00,12,7,20,0.00
2013-4-29,63,54,47,35,31,25,60,43,25,0.00,40.00,18,9,32,0.00
2013-4-30,42,36,30,32,24,18,92,61,40,0.00,40.00,16,10,28,0.00
2013-5-1,47,37,27,22,17,10,74,47,22,0.00,40.00,9,5,0,0.00
2013-5-2,62,49,35,30,22,15,75,38,15,0.00,40.00,8,4,0,0.00
2013-5-3,66,53,43,37,27,22,55,37,18,0.00,40.00,9,4,0,0.00
2013-5-4,65,54,44,37,27,21,58,37,18,0.00,40.00,9,6,0,0.00
2013-5-5,69,55,43,28,24,19,48,31,17,0.00,40.00,6,3,0,0.00
2013-5-6,74,60,48,32,26,23,43,29,14,0.00,40.00,8,3,0,0.00
2013-5-7,82,64,52,39,30,25,47,30,12,0.00,40.00,20,6,30,0.00
2013-5-8,65,54,46,37,35,32,65,49,30,0.00,40.00,13,9,21,0.00
2013-5-9,69,55,44,33,30,27,55,39,23,0.00,40.00,12,7,0,0.00
2013-5-10,60,55,47,39,29,19,68,39,21,0.00,40.00,13,9,23,0.00
2013-5-11,69,52,38,32,26,22,70,38,17,0.00,40.00,10,4,0,0.00
2013-5-12,86,66,48,39,32,22,47,29,17,0.00,40.00,10,5,0,0.00
2013-5-13,92,74,63,56,42,35,74,36,14,0.00,40.00,20,8,33,0.00
2013-5-14,73,62,56,55,35,24,86,39,15,0.00,40.00,22,9,39,0.00
2013-5-15,75,62,49,32,27,23,48,27,14,0.00,40.00,12,6,0,0.00
2013-5-16,73,54,51,50,18,-100,82,48,26,0.00,40.00,12,5,0,0.00
2013-5-17,71,59,51,51,40,-100,89,67,42,0.00,40.00,9,4,0,0.00
2013-5-18,65,58,54,54,52,46,93,80,62,0.00,40.00,9,4,16,0.00
2013-5-19,63,58,53,53,49,42,90,74,48,0.00,40.00,15,10,25,0.00
2013-5-20,63,56,51,47,41,34,76,58,39,0.00,40.00,9,6,16,0.00
2013-5-21,68,58,46,38,34,30,68,41,27,0.00,40.00,12,7,20,0.00
2013-5-22,71,60,49,44,35,23,83,44,16,0.00,40.00,12,8,29,0.00
2013-5-23,70,60,48,41,37,32,65,43,32,0.00,40.00,20,12,35,0.00
2013-5-24,70,61,52,47,38,28,71,44,22,0.00,40.00,18,8,27,0.00
2013-5-25,79,63,53,55,46,33,80,56,38,0.00,40.00,12,7,22,0.00
2013-5-26,77,62,52,54,52,48,93,72,41,0.00,40.00,18,7,27,0.00
2013-5-27,69,58,53,55,52,48,93,80,52,0.00,40.00,16,6,17,0.00
2013-5-28,68,59,50,53,50,47,92,72,46,0.00,40.00,9,4,0,0.00
2013-5-29,60,57,53,55,52,49,90,83,74,0.00,40.00,9,-38,0,0.00
2013-5-30,57,53,51,54,50,48,93,89,82,0.00,40.00,17,11,24,0.00
2013-5-31,51,22,-5,51,22,-5,100,97,84,0.00,40.00,13,10,22,0.00
2013-6-1,31,19,-49,30,16,-100,100,95,97,0.00,40.00,7,4,0,0.00
2013-6-2,49,19,2,46,19,2,100,100,100,0.00,40.00,13,6,24,0.00
2013-6-3,79,57,42,79,57,42,100,100,100,0.00,40.00,22,16,35,0.00
2013-6-4,85,62,40,85,61,40,100,97,89,0.00,40.00,17,8,30,0.00
2013-6-5,90,67,55,90,58,41,100,77,34,0.00,40.00,7,3,0,0.00
2013-6-6,76,62,50,47,44,40,76,53,27,0.00,40.00,8,5,0,0.00
2013-6-7,74,63,54,58,50,43,90,62,45,0.00,40.00,8,4,0,0.00
2013-6-8,71,62,54,57,48,40,93,65,32,0.00,40.00,14,9,27,0.00
2013-6-9,83,66,54,51,46,38,80,54,22,0.00,40.00,13,5,21,0.00
2013-6-10,75,63,52,51,47,41,89,58,31,0.00,40.00,9,5,0,0.00
2013-6-11,72,61,56,53,51,48,86,68,48,0.00,40.00,20,11,32,0.00
2013-6-12,71,63,54,56,54,52,93,73,56,0.00,40.00,12,6,18,0.00
2013-6-13,81,68,59,58,55,51,89,64,41,0.00,40.00,14,8,21,0.00
2013-6-14,69,60,53,56,48,40,93,66,34,0.00,40.00,17,9,23,0.00
2013-6-15,76,65,53,44,40,38,63,42,25,0.00,40.00,15,10,24,0.00
2013-6-16,77,65,54,48,46,42,74,51,31,0.00,40.00,14,8,24,0.00
2013-6-17,75,64,51,51,49,47,85,60,39,0.00,40.00,8,4,0,0.00
2013-6-18,86,70,58,57,53,49,74,56,31,0.00,40.00,12,6,22,0.00
2013-6-19,88,75,62,59,55,51,78,53,28,0.00,40.00,14,8,23,0.00
2013-6-20,74,63,55,56,52,45,93,70,35,0.00,40.00,13,4,21,0.00
2013-6-22,72,66,59,54,50,44,75,57,39,0.00,40.00,12,5,0,0.00
2013-6-23,78,66,58,53,48,40,80,55,27,0.00,40.00,10,6,18,0.00
2013-6-24,89,73,59,59,53,50,74,52,32,0.00,40.00,12,5,17,0.00
2013-6-25,81,70,60,59,54,47,89,60,33,0.00,40.00,13,7,22,0.00
2013-6-26,82,72,62,52,47,44,64,44,28,0.00,40.00,13,6,21,0.00
2013-6-27,82,72,61,46,44,41,57,38,25,0.00,40.00,15,8,25,0.00
2013-6-28,89,72,61,58,51,45,70,50,25,0.00,40.00,12,5,0,0.00
2013-6-29,83,73,62,57,52,46,74,50,28,0.00,40.00,10,5,0,0.00
2013-6-30,84,73,62,56,54,51,74,52,32,0.00,40.00,7,4,16,0.00
2013-7-1,89,75,65,60,56,53,72,54,31,0.00,40.00,8,4,0,0.00
2013-7-2,92,77,66,62,57,51,81,54,25,0.00,40.00,8,4,0,0.00
2013-7-3,93,78,69,66,58,53,68,50,32,0.00,40.00,12,7,21,0.00
2013-7-4,85,75,65,64,57,49,84,57,28,0.00,40.00,9,5,0,0.00
2013-7-5,86,76,68,63,59,56,78,56,37,0.00,40.00,14,6,17,0.00
2013-7-6,79,68,59,62,53,46,80,60,32,0.00,40.00,16,7,23,0.00
2013-7-7,86,73,64,61,55,51,77,55,31,0.00,40.00,10,4,0,0.00
2013-7-8,77,68,62,61,59,55,86,73,51,0.00,40.00,17,7,29,0.00
2013-7-9,77,67,58,58,53,48,89,64,36,0.00,40.00,12,6,24,0.00
2013-7-10,91,73,62,62,49,-100,74,49,25,0.00,40.00,9,5,17,0.00
2013-7-11,92,78,68,62,56,45,75,50,26,0.00,40.00,12,6,20,0.00
2013-7-12,90,78,71,57,47,32,50,35,13,0.00,40.00,14,6,24,0.00
2013-7-13,84,73,64,60,52,40,81,49,27,0.00,40.00,14,8,27,0.00
2013-7-14,76,66,58,53,50,46,77,58,34,0.00,40.00,8,5,17,0.00
2013-7-15,96,75,59,63,56,44,86,57,18,0.00,40.00,20,8,35,0.00
2013-7-16,76,67,54,55,50,45,77,56,35,0.00,40.00,17,9,29,0.00
2013-7-17,75,65,63,62,57,53,81,73,63,0.00,40.00,10,6,14,0.00
2013-7-18,90,77,61,60,51,38,89,46,16,0.00,40.00,18,8,33,0.00
2013-7-19,93,76,63,59,52,41,78,48,16,0.00,40.00,15,4,23,0.00
2013-7-20,88,72,62,59,54,48,80,56,26,0.00,40.00,12,6,20,0.00
2013-7-21,88,77,66,60,53,44,78,47,21,0.00,40.00,16,9,29,0.00
2013-7-22,84,71,61,56,53,51,72,55,33,0.00,40.00,17,8,30,0.00
2013-7-23,81,70,61,58,54,50,75,58,35,0.00,40.00,16,7,22,0.00
2013-7-24,87,72,64,61,56,49,83,60,26,0.00,40.00,27,5,38,0.00
2013-7-25,74,65,57,62,50,41,90,60,32,0.00,40.00,15,8,23,0.00
2013-7-26,75,63,51,50,46,42,86,57,31,0.00,40.00,12,5,20,0.00
2013-7-27,83,69,55,49,45,41,61,44,26,0.00,40.00,15,9,29,0.00
2013-7-28,82,68,57,56,49,45,71,50,32,0.00,40.00,14,6,0,0.00
2013-7-29,79,67,59,56,51,45,80,59,31,0.00,40.00,14,5,23,0.00
2013-7-30,77,65,58,55,52,46,90,66,34,0.00,40.00,12,5,0,0.00
2013-7-31,81,71,61,52,48,43,69,47,27,0.00,40.00,7,4,0,0.00
2013-8-1,78,71,61,55,50,45,59,48,37,0.00,40.00,13,6,20,0.00
2013-8-2,67,64,60,58,54,50,86,70,54,0.00,40.00,8,4,0,0.00
2013-8-3,77,65,57,60,56,53,86,75,53,0.00,40.00,13,7,23,0.00
2013-8-4,78,70,61,59,56,54,93,64,46,0.00,40.00,6,4,0,0.00
2013-8-5,88,73,62,61,56,52,83,60,32,0.00,40.00,7,3,0,0.00
2013-8-6,77,64,57,55,53,48,80,68,36,0.00,40.00,10,7,20,0.00
2013-8-7,73,65,56,53,49,43,86,59,39,0.00,40.00,13,7,17,0.00
2013-8-8,77,64,54,51,47,43,74,55,29,0.00,40.00,13,6,22,0.00
2013-8-9,78,66,56,51,47,45,68,52,35,0.00,40.00,14,8,25,0.00
2013-8-10,86,68,60,58,52,46,80,57,32,0.00,40.00,17,6,27,0.00
2013-8-11,82,68,57,60,56,54,89,70,39,0.00,40.00,12,6,15,0.00
2013-8-12,82,73,63,58,55,49,77,56,32,0.00,40.00,10,7,18,0.00
2013-8-13,83,69,60,62,53,-100,83,61,35,0.00,40.00,12,6,0,0.00
2013-8-14,73,68,64,62,58,54,87,72,53,0.00,40.00,9,3,0,0.00
2013-8-15,88,67,60,61,45,-100,93,59,21,0.00,40.00,8,4,0,0.00
2013-8-16,93,75,65,60,49,-100,72,47,26,0.00,40.00,14,7,20,0.00
2013-8-17,93,78,70,57,50,39,63,40,15,0.00,40.00,13,5,0,0.00
2013-8-18,88,76,64,59,53,46,72,48,23,0.00,40.00,13,6,27,0.00
2013-8-19,93,73,65,60,39,-100,75,39,17,0.00,40.00,12,6,21,0.00
2013-8-20,92,79,69,54,40,-100,47,29,14,0.00,40.00,12,7,21,0.00
2013-8-21,81,70,61,55,48,44,80,47,28,0.00,40.00,18,10,29,0.00
2013-8-22,90,75,61,61,50,43,59,43,26,0.00,40.00,8,5,13,0.00
2013-8-23,95,80,68,62,58,47,81,49,25,0.00,40.00,9,4,0,0.00
2013-8-24,90,79,72,60,51,40,59,38,17,0.00,40.00,12,5,23,0.00
2013-8-25,96,80,68,60,52,39,75,43,13,0.00,40.00,9,5,0,0.00
2013-8-26,95,80,70,62,53,44,73,42,21,0.00,40.00,7,4,12,0.00
2013-8-27,85,75,67,57,51,49,56,43,31,0.00,40.00,8,3,17,0.00
2013-8-28,93,83,68,65,58,49,84,47,23,0.00,40.00,10,6,18,0.00
2013-8-29,91,75,64,64,58,47,90,61,22,0.00,40.00,8,4,0,0.00
2013-8-30,90,78,66,55,52,45,60,41,23,0.00,40.00,8,4,0,0.00
2013-8-31,81,71,60,48,43,35,59,38,19,0.00,40.00,16,9,32,0.00
2013-9-1,86,70,56,56,51,45,83,55,24,0.00,40.00,10,4,0,0.00
2013-9-2,96,77,60,53,49,42,72,42,16,0.00,40.00,6,4,0,0.00
2013-9-3,96,82,71,58,51,44,51,35,18,0.00,40.00,12,4,16,0.00
2013-9-4,82,73,65,65,60,56,84,63,43,0.00,40.00,12,6,0,0.00
2013-9-5,91,79,66,64,60,53,84,56,29,0.00,40.00,8,5,0,0.00
2013-9-6,91,80,69,66,60,54,84,53,28,0.00,40.00,12,6,20,0.00
2013-9-7,76,68,63,65,61,57,90,76,66,0.00,40.00,21,11,31,0.00
2013-9-8,70,65,61,61,59,57,93,81,72,0.00,40.00,12,5,20,0.00
2013-9-9,71,65,57,60,55,51,90,72,50,0.00,40.00,12,6,20,0.00
2013-9-10,82,70,59,59,54,50,86,59,32,0.00,40.00,7,4,12,0.00
2013-9-11,82,71,59,50,44,37,64,41,21,0.00,40.00,10,5,0,0.00
2013-9-12,76,67,57,51,44,40,54,44,28,0.00,40.00,6,3,0,0.00
2013-9-13,85,74,64,57,53,50,60,49,32,0.00,40.00,10,5,0,0.00
2013-9-14,77,69,61,57,50,40,70,52,33,0.00,40.00,21,10,32,0.00
2013-9-15,77,66,51,49,45,42,73,49,32,0.00,40.00,12,8,21,0.00
2013-9-16,83,70,59,58,52,46,72,55,35,0.00,40.00,17,10,27,0.00
2013-9-17,83,71,60,58,47,37,70,46,20,0.00,40.00,12,5,0,0.00
2013-9-18,66,62,56,55,50,38,77,66,48,0.00,40.00,13,6,20,0.00
2013-9-19,64,52,44,47,41,36,92,67,38,0.00,40.00,13,8,25,0.00
2013-9-20,76,68,54,43,40,35,64,37,25,0.00,40.00,14,8,22,0.00
2013-9-21,87,71,55,47,40,33,54,35,15,0.00,40.00,10,6,17,0.00
2013-9-22,76,66,55,43,39,33,61,39,20,0.00,40.00,17,7,29,0.00
2013-9-23,74,63,55,45,35,25,63,37,17,0.00,40.00,17,8,27,0.00
2013-9-24,75,64,51,42,35,28,60,35,20,0.00,40.00,10,6,17,0.00
2013-9-25,59,52,47,47,44,42,89,74,59,0.00,40.00,10,6,18,0.00
2013-9-26,50,46,44,44,41,33,92,81,65,0.00,40.00,12,7,22,0.00
2013-9-27,58,49,41,40,33,29,70,54,34,0.00,40.00,15,8,24,0.00
2013-9-28,67,57,46,44,35,30,70,46,27,0.00,40.00,14,9,25,0.00
2013-9-29,73,63,52,41,35,25,51,36,21,0.00,40.00,18,12,31,0.00
2013-9-30,66,57,49,44,35,22,70,45,22,0.00,40.00,20,11,32,0.00
2013-10-1,65,58,54,22,21,19,28,23,18,0.00,40.00,8,6,0,0.00
2013-10-2,60,53,44,28,24,21,46,32,22,0.00,40.00,13,7,23,0.00
2013-10-3,48,44,40,35,31,24,76,60,40,0.00,40.00,17,11,29,0.00
2013-10-4,49,41,33,29,26,20,84,56,33,0.00,40.00,13,8,20,0.00
2013-10-5,65,55,43,30,27,22,57,35,20,0.00,40.00,9,5,14,0.00
2013-10-6,76,62,46,46,34,29,69,39,20,0.00,40.00,12,7,24,0.00
2013-10-7,78,62,46,44,34,22,79,40,14,0.00,40.00,10,5,20,0.00
2013-10-8,68,58,48,29,26,23,45,29,19,0.00,40.00,12,6,20,0.00
2013-10-9,60,54,38,38,35,24,69,49,37,0.00,40.00,9,6,17,0.00
2013-10-10,65,55,46,41,36,30,63,49,34,0.00,40.00,10,5,17,0.00
2013-10-11,55,48,42,38,30,19,76,52,25,0.00,40.00,17,10,38,0.00
2013-10-12,56,46,37,28,24,18,67,44,22,0.00,40.00,10,5,20,0.00
2013-10-13,57,51,42,30,26,21,57,38,26,0.00,40.00,17,9,27,0.00
2013-10-14,51,46,37,32,25,21,62,43,30,0.00,40.00,20,12,30,0.00
2013-10-15,56,46,32,33,26,21,65,47,28,0.00,40.00,12,6,0,0.00
2013-10-16,55,43,37,38,32,24,92,69,38,0.00,40.00,15,6,28,0.00
2013-10-17,48,38,30,36,31,25,92,77,40,0.00,40.00,12,5,17,0.00
2013-10-18,56,44,35,35,31,23,92,63,30,0.00,40.00,12,7,22,0.00
2013-10-19,61,51,42,32,30,29,62,45,31,0.00,40.00,17,9,27,0.00
2013-10-20,49,41,36,38,34,32,85,77,58,0.00,40.00,13,5,22,0.00
2013-10-21,56,49,43,44,38,35,89,66,52,0.00,40.00,13,6,23,0.00
2013-10-22,55,49,43,41,38,32,79,66,46,0.00,40.00,6,3,0,0.00
2013-10-23,50,45,40,39,36,30,85,71,53,0.00,40.00,8,5,0,0.00
2013-10-24,55,44,33,37,34,32,95,70,46,0.00,40.00,9,4,0,0.00
2013-10-25,62,52,41,38,31,16,79,46,26,0.00,40.00,12,7,27,0.00
2013-10-26,66,53,36,34,27,16,60,37,24,0.00,40.00,10,5,0,0.00
2013-10-27,46,39,32,32,29,25,77,66,49,0.00,40.00,24,15,35,0.00
2013-10-28,32,27,25,27,21,-100,96,85,68,0.00,40.00,18,10,29,0.00
2013-10-29,34,30,27,30,27,25,92,88,84,0.00,40.00,12,-36,21,0.00
2013-10-30,49,37,31,32,30,28,96,77,51,0.00,40.00,12,7,17,0.00
2013-10-31,53,43,34,38,31,28,88,64,39,0.00,40.00,15,10,28,0.00
2013-11-1,55,45,35,33,27,20,78,52,25,0.00,40.00,18,10,31,0.00
2013-11-2,52,46,36,32,30,26,79,54,46,0.00,40.00,12,5,0,0.00
2013-11-3,51,42,32,36,28,21,78,58,31,0.00,40.00,14,9,30,0.00
2013-11-4,34,28,22,22,18,14,77,64,44,0.00,40.00,14,9,25,0.00
2013-11-5,43,35,21,25,18,13,80,51,28,0.00,40.00,12,7,0,0.00
2013-11-6,45,39,33,24,18,13,66,42,28,0.00,40.00,7,4,0,0.00
2013-11-7,48,44,32,29,26,22,78,50,36,0.00,40.00,10,6,18,0.00
2013-11-8,50,42,33,39,33,28,95,72,44,0.00,40.00,18,9,32,0.00
2013-11-9,42,35,28,32,27,23,95,73,50,0.00,40.00,9,5,12,0.00
2013-11-10,39,29,19,29,24,17,96,83,66,0.00,40.00,14,9,24,0.00
2013-11-11,28,22,16,22,17,14,91,81,65,0.00,40.00,12,6,14,0.00
2013-11-12,50,44,32,37,34,28,85,67,57,0.00,40.00,14,9,23,0.00
2013-11-13,60,50,42,36,32,29,72,51,34,0.00,40.00,15,8,27,0.00
2013-11-14,52,43,38,33,30,27,78,59,40,0.00,40.00,12,6,27,0.00
2013-11-15,51,42,35,32,27,21,78,58,32,0.00,40.00,12,7,20,0.00
2013-11-16,44,39,34,34,31,26,88,73,50,0.00,40.00,8,4,0,0.00
2013-11-17,34,29,26,32,24,18,96,80,66,0.00,40.00,13,6,23,0.00
2013-11-18,52,44,28,30,28,23,95,54,31,0.00,40.00,10,6,0,0.00
2013-11-19,62,40,16,32,25,9,80,60,26,0.00,40.00,15,8,28,0.00
2013-11-20,17,10,2,10,6,-2,91,79,73,0.00,40.00,12,7,23,0.00
2013-11-21,27,24,21,14,13,12,70,61,52,0.00,40.00,12,10,20,0.00
2013-11-22,23,17,13,14,11,4,83,78,66,0.00,40.00,9,4,0,0.00
2013-11-23,34,26,13,21,16,9,91,67,51,0.00,40.00,14,10,0,0.00
2013-11-24,44,38,34,27,24,18,72,59,46,0.00,40.00,15,6,23,0.00
2013-11-25,38,31,25,23,20,16,77,65,43,0.00,40.00,13,8,23,0.00
2013-11-26,34,29,20,25,21,18,91,72,60,0.00,40.00,12,8,17,0.00
2013-11-27,41,34,30,27,25,22,78,68,50,0.00,40.00,13,5,21,0.00
2013-11-28,35,27,22,27,24,22,100,91,66,0.00,40.00,9,4,14,0.00
2013-11-29,47,37,29,33,29,27,96,75,49,0.00,40.00,7,4,0,0.00
2013-11-30,41,36,33,33,31,28,88,80,70,0.00,40.00,5,2,0,0.00
2013-12-1,44,40,35,38,33,29,92,76,62,0.00,40.00,7,4,0,0.00
2013-12-2,39,30,21,37,28,19,100,93,88,0.00,40.00,18,9,30,0.00
2013-12-3,21,13,6,20,12,3,96,93,90,0.00,40.00,20,11,28,0.00
2013-12-4,5,1,-9,3,-3,-14,91,83,75,0.00,40.00,12,8,20,0.00
2013-12-5,-2,-10,-15,-13,-16,-20,81,74,58,0.00,40.00,10,6,18,0.00
2013-12-6,-8,-16,-21,-19,-22,-27,77,71,51,0.00,40.00,9,7,0,0.00
2013-12-7,-21,-22,-24,-27,-28,-29,76,73,72,0.00,40.00,10,8,0,0.00
2013-12-8,6,-2,-8,1,-6,-12,87,79,74,0.00,40.00,12,7,16,0.00
2013-12-9,27,13,-6,22,9,-9,91,82,70,0.00,40.00,20,11,36,0.00
2013-12-10,21,11,-4,18,6,-10,91,80,66,0.00,40.00,12,7,21,0.00
2013-12-11,32,10,-1,19,6,-3,91,82,62,0.00,40.00,12,8,0,0.00
2013-12-12,36,31,16,28,24,15,96,75,61,0.00,40.00,9,5,0,0.00
2013-12-13,16,13,10,16,12,8,100,93,87,0.00,40.00,10,4,0,0.00
2013-12-14,24,15,6,23,13,4,100,90,80,0.00,40.00,6,3,0,0.00
2013-12-15,46,42,27,29,28,26,96,59,49,0.00,40.00,17,10,35,0.00
2013-12-16,36,32,26,32,28,20,100,87,68,0.00,40.00,9,6,0,0.00
2013-12-17,38,33,25,29,25,18,85,71,59,0.00,40.00,10,7,0,0.00
2013-12-18,43,29,9,27,22,7,91,74,48,0.00,40.00,16,10,22,0.00
2013-12-19,9,3,-3,7,-1,-7,91,83,72,0.00,40.00,12,6,21,0.00
2013-12-20,14,6,2,9,2,-2,95,85,66,0.00,40.00,8,4,0,0.00
2013-12-21,12,6,-1,7,3,-4,91,86,72,0.00,40.00,5,4,0,0.00
2013-12-22,8,-2,-13,2,-7,-16,86,81,75,0.00,40.00,10,5,0,0.00
2013-12-23,31,9,-15,30,6,-18,100,86,75,0.00,40.00,17,8,22,0.00
2013-12-24,36,32,26,32,27,23,100,84,69,0.00,40.00,15,8,28,0.00
2013-12-25,36,31,28,25,22,19,81,68,53,0.00,40.00,12,7,22,0.00
2013-12-26,44,38,32,32,27,22,72,64,50,0.00,40.00,15,8,28,0.00
2013-12-27,48,42,36,32,30,26,78,62,45,0.00,40.00,9,6,0,0.00
2013-12-28,44,13,2,30,5,-5,79,70,50,0.00,40.00,27,9,43,0.00
2013-12-29,24,16,6,20,11,0,87,81,75,0.00,40.00,8,4,0,0.00
2013-12-30,27,16,10,23,11,6,91,80,69,0.00,40.00,12,6,27,0.00
2013-12-31,10,5,3,8,2,0,91,85,82,0.00,40.00,14,7,0,0.00
2014-1-1,14,9,2,11,4,-3,87,81,69,0.00,40.00,7,2,0,0.00
2014-1-2,34,22,14,27,18,11,96,85,69,0.00,40.00,8,4,0,0.00